createdAt,value
2022-10-21T00:00:17.933Z,97921.16
2022-10-21T00:02:44.416Z,97919.66
2022-10-21T00:05:10.942Z,97916.81
2022-10-21T00:07:37.569Z,97913.97
2022-10-21T00:10:04.557Z,97908.03
2022-10-21T00:12:31.080Z,97893.38
2022-10-21T00:14:57.579Z,97895.41
2022-10-21T00:17:24.080Z,97890.59
2022-10-21T00:19:50.635Z,97891.00
2022-10-21T00:22:17.106Z,97887.47
2022-10-21T00:24:43.589Z,97903.41
2022-10-21T00:27:10.073Z,97889.91
2022-10-21T00:29:36.557Z,97886.75
2022-10-21T00:32:03.054Z,97897.53
2022-10-21T00:34:30.993Z,97879.94
2022-10-21T00:36:57.652Z,97885.31
2022-10-21T00:39:24.122Z,97888.94
2022-10-21T00:41:50.589Z,97875.41
2022-10-21T00:44:17.118Z,97870.28
2022-10-21T00:46:54.353Z,97873.47
2022-10-21T00:49:26.868Z,97860.78
2022-10-21T00:51:55.548Z,97869.56
2022-10-21T00:54:22.460Z,97870.78
2022-10-21T00:56:49.012Z,97859.66
2022-10-21T00:59:15.584Z,97861.69
2022-10-21T01:01:42.139Z,97843.78
2022-10-21T01:04:08.689Z,97837.84
2022-10-21T01:06:35.169Z,97835.88
2022-10-21T01:09:01.672Z,97824.28
2022-10-21T01:11:28.376Z,97822.25
2022-10-21T01:14:32.186Z,97810.25
2022-10-21T01:17:01.660Z,97818.19
2022-10-21T01:19:49.988Z,97832.22
2022-10-21T01:22:23.191Z,97810.00
2022-10-21T01:24:56.823Z,97812.00
2022-10-21T01:27:35.718Z,97808.38
2022-10-21T01:30:07.172Z,97803.56
2022-10-21T01:32:55.262Z,97799.13
2022-10-21T01:35:30.917Z,97799.88
2022-10-21T01:38:22.102Z,97793.47
2022-10-21T01:40:51.457Z,97792.69
2022-10-21T01:43:21.275Z,97791.06
2022-10-21T01:45:50.172Z,97773.53
2022-10-21T01:48:22.077Z,97782.69
2022-10-21T01:50:52.072Z,97777.53
2022-10-21T01:53:18.880Z,97782.69
2022-10-21T01:55:45.565Z,97785.03
2022-10-21T01:58:21.041Z,97783.88
2022-10-21T02:00:48.015Z,97763.94
2022-10-21T02:03:26.136Z,97759.56
2022-10-21T02:05:52.685Z,97762.75
2022-10-21T02:08:19.211Z,97773.53
2022-10-21T02:10:49.055Z,97763.91
2022-10-21T02:13:18.873Z,97753.56
2022-10-21T02:15:45.392Z,97747.19
2022-10-21T02:18:22.967Z,97731.34
2022-10-21T02:20:51.776Z,97736.06
2022-10-21T02:23:19.272Z,97743.59
2022-10-21T02:25:46.230Z,97732.09
2022-10-21T02:28:12.695Z,97734.16
2022-10-21T02:30:55.333Z,97730.56
2022-10-21T02:33:37.573Z,97720.22
2022-10-21T02:36:22.738Z,97721.41
2022-10-21T02:38:51.423Z,97715.84
2022-10-21T02:41:20.153Z,97721.09
2022-10-21T02:43:50.866Z,97711.13
2022-10-21T02:46:17.410Z,97705.63
2022-10-21T02:48:44.905Z,97698.03
2022-10-21T02:51:11.423Z,97700.44
2022-10-21T02:53:37.960Z,97704.84
2022-10-21T02:56:04.706Z,97698.13
2022-10-21T02:58:31.213Z,97702.09
2022-10-21T03:00:57.877Z,97716.44
2022-10-21T03:03:24.413Z,97715.25
2022-10-21T03:05:50.944Z,97712.84
2022-10-21T03:08:17.432Z,97715.66
2022-10-21T03:10:44.881Z,97710.50
2022-10-21T03:13:13.517Z,97707.75
2022-10-21T03:15:39.985Z,97707.75
2022-10-21T03:18:06.500Z,97716.81
2022-10-21T03:20:33.019Z,97710.50
2022-10-21T03:22:59.479Z,97714.91
2022-10-21T03:25:25.949Z,97705.34
2022-10-21T03:27:52.567Z,97697.41
2022-10-21T03:30:19.149Z,97696.13
2022-10-21T03:32:45.628Z,97703.31
2022-10-21T03:35:12.337Z,97691.75
2022-10-21T03:37:38.870Z,97694.53
2022-10-21T03:40:08.662Z,97690.97
2022-10-21T03:42:38.221Z,97695.25
2022-10-21T03:45:05.077Z,97700.38
2022-10-21T03:47:31.554Z,97699.91
2022-10-21T03:49:58.458Z,97700.34
2022-10-21T03:52:24.960Z,97696.41
2022-10-21T03:54:51.420Z,97688.81
2022-10-21T03:57:17.889Z,97695.16
2022-10-21T03:59:44.351Z,97695.09
2022-10-21T04:02:10.845Z,97697.91
2022-10-21T04:04:37.331Z,97696.69
2022-10-21T04:07:03.823Z,97707.88
2022-10-21T04:09:30.302Z,97695.56
2022-10-21T04:11:56.776Z,97695.22
2022-10-21T04:14:23.289Z,97702.00
2022-10-21T04:16:53.651Z,97690.50
2022-10-21T04:19:28.662Z,97684.94
2022-10-21T04:21:55.156Z,97685.78
2022-10-21T04:24:21.626Z,97682.22
2022-10-21T04:26:48.105Z,97660.34
2022-10-21T04:29:14.614Z,97668.69
2022-10-21T04:31:41.187Z,97662.72
2022-10-21T04:34:08.159Z,97658.69
2022-10-21T04:36:34.719Z,97656.28
2022-10-21T04:39:01.192Z,97655.91
2022-10-21T04:41:27.695Z,97653.53
2022-10-21T04:43:54.625Z,97646.78
2022-10-21T04:46:21.478Z,97647.16
2022-10-21T04:48:48.048Z,97645.66
2022-10-21T04:51:14.543Z,97635.25
2022-10-21T04:53:41.067Z,97631.28
2022-10-21T04:56:07.654Z,97624.56
2022-10-21T04:58:34.164Z,97618.13
2022-10-21T05:01:00.723Z,97629.69
2022-10-21T05:03:27.256Z,97629.72
2022-10-21T05:05:53.761Z,97623.34
2022-10-21T05:08:20.247Z,97613.84
2022-10-21T05:10:46.728Z,97610.22
2022-10-21T05:13:13.218Z,97615.00
2022-10-21T05:15:39.703Z,97612.22
2022-10-21T05:18:06.171Z,97621.03
2022-10-21T05:20:32.660Z,97631.84
2022-10-21T05:22:59.203Z,97633.03
2022-10-21T05:25:25.669Z,97622.22
2022-10-21T05:27:52.176Z,97619.09
2022-10-21T05:30:18.655Z,97619.50
2022-10-21T05:32:45.146Z,97613.06
2022-10-21T05:35:12.123Z,97609.47
2022-10-21T05:37:38.743Z,97611.06
2022-10-21T05:40:05.928Z,97608.66
2022-10-21T05:42:32.490Z,97603.44
2022-10-21T05:44:58.959Z,97604.63
2022-10-21T05:47:25.490Z,97612.53
2022-10-21T05:49:52.935Z,97614.50
2022-10-21T05:52:19.426Z,97619.66
2022-10-21T05:54:45.887Z,97626.06
2022-10-21T05:57:12.394Z,97620.53
2022-10-21T05:59:38.870Z,97627.66
2022-10-21T06:02:05.362Z,97627.25
2022-10-21T06:04:36.336Z,97626.06
2022-10-21T06:07:05.270Z,97626.50
2022-10-21T06:09:31.815Z,97636.03
2022-10-21T06:11:58.300Z,97643.16
2022-10-21T06:14:25.744Z,97650.38
2022-10-21T06:16:52.224Z,97646.41
2022-10-21T06:19:18.696Z,97645.59
2022-10-21T06:21:45.246Z,97645.63
2022-10-21T06:24:11.722Z,97648.78
2022-10-21T06:26:38.209Z,97646.03
2022-10-21T06:29:04.711Z,97640.09
2022-10-21T06:31:31.200Z,97646.06
2022-10-21T06:33:57.698Z,97645.72
2022-10-21T06:36:24.196Z,97649.69
2022-10-21T06:38:51.258Z,97636.16
2022-10-21T06:41:18.893Z,97636.56
2022-10-21T06:43:45.450Z,97634.16
2022-10-21T06:46:13.054Z,97642.09
2022-10-21T06:48:39.613Z,97636.56
2022-10-21T06:51:11.528Z,97644.06
2022-10-21T06:53:39.210Z,97645.66
2022-10-21T06:56:08.107Z,97650.47
2022-10-21T06:58:35.598Z,97654.06
2022-10-21T07:01:16.690Z,97642.19
2022-10-21T07:03:54.875Z,97646.97
2022-10-21T07:06:21.469Z,97649.00
2022-10-21T07:08:58.023Z,97645.81
2022-10-21T07:11:25.324Z,97658.19
2022-10-21T07:13:51.810Z,97658.22
2022-10-21T07:16:23.547Z,97672.63
2022-10-21T07:18:50.192Z,97667.50
2022-10-21T07:21:18.493Z,97664.34
2022-10-21T07:23:45.545Z,97663.94
2022-10-21T07:26:12.066Z,97664.84
2022-10-21T07:28:40.051Z,97660.84
2022-10-21T07:31:06.582Z,97660.84
2022-10-21T07:33:35.657Z,97656.44
2022-10-21T07:36:04.004Z,97654.47
2022-10-21T07:38:30.788Z,97652.50
2022-10-21T07:40:58.885Z,97652.09
2022-10-21T07:43:25.493Z,97646.97
2022-10-21T07:45:51.965Z,97644.63
2022-10-21T07:48:19.139Z,97664.13
2022-10-21T07:50:45.693Z,97659.41
2022-10-21T07:53:12.993Z,97659.03
2022-10-21T07:55:39.938Z,97663.03
2022-10-21T07:58:06.414Z,97658.31
2022-10-21T08:00:32.887Z,97645.16
2022-10-21T08:02:59.450Z,97649.56
2022-10-21T08:05:26.089Z,97648.81
2022-10-21T08:07:52.648Z,97639.25
2022-10-21T08:10:19.234Z,97642.47
2022-10-21T08:12:45.785Z,97643.63
2022-10-21T08:15:12.305Z,97642.44
2022-10-21T08:17:38.779Z,97632.06
2022-10-21T08:20:05.858Z,97637.66
2022-10-21T08:22:32.712Z,97634.88
2022-10-21T08:24:59.207Z,97620.88
2022-10-21T08:27:25.675Z,97628.09
2022-10-21T08:29:52.147Z,97629.31
2022-10-21T08:32:18.614Z,97638.88
2022-10-21T08:34:45.078Z,97643.28
2022-10-21T08:37:11.548Z,97640.09
2022-10-21T08:39:38.012Z,97638.91
2022-10-21T08:42:16.987Z,97640.50
2022-10-21T08:44:45.008Z,97644.13
2022-10-21T08:47:33.728Z,97620.16
2022-10-21T08:50:05.168Z,97624.13
2022-10-21T08:52:41.662Z,97611.31
2022-10-21T08:55:14.550Z,97602.50
2022-10-21T08:57:41.394Z,97605.69
2022-10-21T09:00:22.180Z,97596.13
2022-10-21T09:02:53.632Z,97606.50
2022-10-21T09:05:29.867Z,97603.69
2022-10-21T09:08:21.167Z,97610.06
2022-10-21T09:11:01.389Z,97599.28
2022-10-21T09:13:31.067Z,97606.53
2022-10-21T09:16:09.185Z,97605.72
2022-10-21T09:18:54.317Z,97600.91
2022-10-21T09:21:26.946Z,97599.34
2022-10-21T09:24:12.837Z,97601.69
2022-10-21T09:26:42.120Z,97603.72
2022-10-21T09:29:31.088Z,97606.53
2022-10-21T09:32:17.905Z,97601.31
2022-10-21T09:34:48.844Z,97613.72
2022-10-21T09:37:43.453Z,97604.16
2022-10-21T09:40:21.131Z,97606.53
2022-10-21T09:42:50.192Z,97605.75
2022-10-21T09:45:24.185Z,97601.75
2022-10-21T09:47:59.587Z,97605.38
2022-10-21T09:50:26.694Z,97610.16
2022-10-21T09:53:00.686Z,97599.38
2022-10-21T09:55:27.464Z,97608.16
2022-10-21T09:57:55.934Z,97615.75
2022-10-21T10:00:22.440Z,97621.75
2022-10-21T10:02:48.909Z,97627.34
2022-10-21T10:05:35.228Z,97621.75
2022-10-21T10:08:22.275Z,97631.31
2022-10-21T10:10:48.798Z,97636.13
2022-10-21T10:13:18.073Z,97636.91
2022-10-21T10:15:44.552Z,97632.13
2022-10-21T10:18:23.349Z,97630.91
2022-10-21T10:21:09.543Z,97635.31
2022-10-21T10:23:50.862Z,97629.31
2022-10-21T10:26:18.785Z,97631.31
2022-10-21T10:28:50.489Z,97626.91
2022-10-21T10:31:23.673Z,97631.31
2022-10-21T10:33:58.663Z,97636.91
2022-10-21T10:36:28.169Z,97646.91
2022-10-21T10:38:55.693Z,97647.28
2022-10-21T10:41:22.242Z,97646.09
2022-10-21T10:43:50.512Z,97645.69
2022-10-21T10:46:29.131Z,97641.31
2022-10-21T10:48:56.982Z,97642.50
2022-10-21T10:51:32.375Z,97634.13
2022-10-21T10:54:02.734Z,97638.50
2022-10-21T10:56:33.038Z,97646.47
2022-10-21T10:59:24.171Z,97643.69
2022-10-21T11:01:53.637Z,97643.28
2022-10-21T11:04:55.671Z,97640.09
2022-10-21T11:07:57.828Z,97637.72
2022-10-21T11:10:27.371Z,97641.69
2022-10-21T11:12:53.847Z,97633.72
2022-10-21T11:15:20.652Z,97633.72
2022-10-21T11:18:17.148Z,97625.72
2022-10-21T11:21:04.619Z,97632.13
2022-10-21T11:23:35.098Z,97633.31
2022-10-21T11:26:40.406Z,97637.72
2022-10-21T11:29:13.656Z,97646.09
2022-10-21T11:32:14.803Z,97640.09
2022-10-21T11:34:50.362Z,97642.09
2022-10-21T11:37:44.611Z,97639.72
2022-10-21T11:40:25.316Z,97636.09
2022-10-21T11:42:52.110Z,97638.09
2022-10-21T11:46:01.783Z,97643.69
2022-10-21T11:48:31.147Z,97633.31
2022-10-21T11:51:20.995Z,97642.88
2022-10-21T11:54:05.682Z,97643.66
2022-10-21T11:56:39.771Z,97647.66
2022-10-21T11:59:28.088Z,97643.25
2022-10-21T12:02:05.895Z,97659.25
2022-10-21T12:04:37.019Z,97660.81
2022-10-21T12:07:14.603Z,97664.81
2022-10-21T12:09:44.030Z,97666.38
2022-10-21T12:12:15.783Z,97664.81
2022-10-21T12:14:44.028Z,97657.22
2022-10-21T12:17:19.494Z,97666.41
2022-10-21T12:19:50.539Z,97670.38
2022-10-21T12:22:17.058Z,97668.38
2022-10-21T12:25:00.752Z,97666.75
2022-10-21T12:28:18.286Z,97674.75
2022-10-21T12:31:22.631Z,97675.56
2022-10-21T12:33:49.332Z,97679.16
2022-10-21T12:36:25.609Z,97677.50
2022-10-21T12:38:55.750Z,97687.53
2022-10-21T12:41:35.668Z,97695.91
2022-10-21T12:44:02.076Z,97697.88
2022-10-21T12:46:36.141Z,97695.91
2022-10-21T12:49:17.887Z,97694.28
2022-10-21T12:51:49.278Z,97687.06
2022-10-21T12:54:17.468Z,97687.47
2022-10-21T12:56:44.976Z,97682.28
2022-10-21T12:59:38.866Z,97680.72
2022-10-21T13:02:05.249Z,97683.06
2022-10-21T13:04:31.719Z,97684.31
2022-10-21T13:06:58.953Z,97684.75
2022-10-21T13:09:32.664Z,97685.94
2022-10-21T13:12:23.813Z,97681.16
2022-10-21T13:14:57.704Z,97676.78
2022-10-21T13:17:28.075Z,97686.34
2022-10-21T13:19:56.091Z,97687.97
2022-10-21T13:22:33.038Z,97692.72
2022-10-21T13:25:09.876Z,97690.69
2022-10-21T13:27:36.360Z,97678.75
2022-10-21T13:30:03.138Z,97685.53
2022-10-21T13:32:39.353Z,97685.16
2022-10-21T13:35:24.423Z,97688.38
2022-10-21T13:37:55.464Z,97703.56
2022-10-21T13:40:22.922Z,97693.53
2022-10-21T13:43:00.196Z,97687.16
2022-10-21T13:45:32.940Z,97690.31
2022-10-21T13:48:19.076Z,97699.50
2022-10-21T13:50:49.553Z,97708.31
2022-10-21T13:53:38.013Z,97709.91
2022-10-21T13:56:06.318Z,97701.09
2022-10-21T13:58:39.026Z,97704.66
2022-10-21T14:01:46.263Z,97703.88
2022-10-21T14:04:14.447Z,97697.09
2022-10-21T14:06:44.893Z,97701.88
2022-10-21T14:09:29.608Z,97701.91
2022-10-21T14:12:01.887Z,97693.91
2022-10-21T14:14:29.144Z,97693.06
2022-10-21T14:17:08.860Z,97684.31
2022-10-21T14:19:37.778Z,97676.75
2022-10-21T14:22:04.618Z,97700.28
2022-10-21T14:24:45.904Z,97699.91
2022-10-21T14:27:19.036Z,97708.28
2022-10-21T14:29:45.920Z,97701.94
2022-10-21T14:32:15.126Z,97703.53
2022-10-21T14:35:09.887Z,97697.94
2022-10-21T14:37:46.416Z,97701.13
2022-10-21T14:40:33.084Z,97689.97
2022-10-21T14:43:04.530Z,97691.94
2022-10-21T14:45:35.223Z,97692.75
2022-10-21T14:48:28.055Z,97696.75
2022-10-21T14:51:02.509Z,97684.38
2022-10-21T14:53:33.168Z,97689.19
2022-10-21T14:56:01.355Z,97674.84
2022-10-21T14:58:41.971Z,97672.41
2022-10-21T15:01:19.221Z,97676.78
2022-10-21T15:04:06.150Z,97671.19
2022-10-21T15:06:35.901Z,97672.00
2022-10-21T15:09:13.760Z,97673.19
2022-10-21T15:11:43.511Z,97668.03
2022-10-21T15:14:13.238Z,97666.03
2022-10-21T15:17:02.326Z,97671.22
2022-10-21T15:19:38.345Z,97658.84
2022-10-21T15:22:06.138Z,97671.59
2022-10-21T15:24:43.975Z,97670.41
2022-10-21T15:27:26.494Z,97672.41
2022-10-21T15:29:53.030Z,97676.78
2022-10-21T15:32:24.496Z,97668.81
2022-10-21T15:34:58.262Z,97662.03
2022-10-21T15:37:26.599Z,97662.03
2022-10-21T15:39:54.394Z,97664.41
2022-10-21T15:42:22.533Z,97656.44
2022-10-21T15:44:51.904Z,97655.25
2022-10-21T15:47:18.497Z,97659.63
2022-10-21T15:49:49.387Z,97663.22
2022-10-21T15:52:16.295Z,97667.19
2022-10-21T15:54:43.407Z,97674.34
2022-10-21T15:57:20.625Z,97678.34
2022-10-21T15:59:47.331Z,97690.69
2022-10-21T16:02:17.145Z,97692.25
2022-10-21T16:04:44.721Z,97689.91
2022-10-21T16:07:22.777Z,97693.88
2022-10-21T16:09:49.279Z,97685.50
2022-10-21T16:12:16.711Z,97689.91
2022-10-21T16:14:43.687Z,97692.25
2022-10-21T16:17:10.505Z,97688.22
2022-10-21T16:19:42.409Z,97686.22
2022-10-21T16:22:21.194Z,97688.22
2022-10-21T16:24:47.761Z,97688.22
2022-10-21T16:27:23.037Z,97681.84
2022-10-21T16:30:05.971Z,97688.56
2022-10-21T16:32:35.042Z,97688.16
2022-10-21T16:35:01.561Z,97689.78
2022-10-21T16:37:28.397Z,97693.34
2022-10-21T16:39:56.333Z,97696.53
2022-10-21T16:42:22.881Z,97691.75
2022-10-21T16:44:53.134Z,97702.50
2022-10-21T16:47:21.123Z,97701.31
2022-10-21T16:49:48.349Z,97702.50
2022-10-21T16:52:16.415Z,97710.03
2022-10-21T16:54:48.624Z,97715.25
2022-10-21T16:57:15.456Z,97716.88
2022-10-21T16:59:42.247Z,97725.56
2022-10-21T17:02:19.462Z,97737.94
2022-10-21T17:04:48.613Z,97737.50
2022-10-21T17:07:15.091Z,97741.50
2022-10-21T17:09:41.594Z,97744.66
2022-10-21T17:12:10.580Z,97745.84
2022-10-21T17:14:38.235Z,97750.22
2022-10-21T17:17:04.722Z,97743.88
2022-10-21T17:19:32.114Z,97745.44
2022-10-21T17:22:01.386Z,97738.63
2022-10-21T17:24:32.745Z,97740.56
2022-10-21T17:27:01.043Z,97744.53
2022-10-21T17:29:32.274Z,97731.78
2022-10-21T17:31:58.755Z,97735.78
2022-10-21T17:34:27.593Z,97742.94
2022-10-21T17:36:55.196Z,97742.88
2022-10-21T17:39:23.531Z,97741.19
2022-10-21T17:41:51.078Z,97741.97
2022-10-21T17:44:17.876Z,97743.47
2022-10-21T17:46:44.431Z,97753.50
2022-10-21T17:49:11.305Z,97743.78
2022-10-21T17:51:40.777Z,97750.06
2022-10-21T17:54:07.604Z,97750.06
2022-10-21T17:56:34.533Z,97757.75
2022-10-21T17:59:01.987Z,97758.88
2022-10-21T18:01:28.866Z,97768.13
2022-10-21T18:03:57.422Z,97767.03
2022-10-21T18:06:25.840Z,97776.63
2022-10-21T18:08:52.389Z,97776.34
2022-10-21T18:11:20.752Z,97779.91
2022-10-21T18:13:48.994Z,97783.19
2022-10-21T18:16:21.319Z,97771.22
2022-10-21T18:18:47.959Z,97777.50
2022-10-21T18:21:16.700Z,97785.47
2022-10-21T18:23:44.358Z,97779.50
2022-10-21T18:26:20.868Z,97771.94
2022-10-21T18:28:57.916Z,97779.13
2022-10-21T18:31:24.876Z,97781.91
2022-10-21T18:33:54.327Z,97776.69
2022-10-21T18:36:22.032Z,97778.63
2022-10-21T18:38:52.154Z,97775.81
2022-10-21T18:41:20.506Z,97774.63
2022-10-21T18:43:51.384Z,97774.28
2022-10-21T18:46:18.178Z,97776.13
2022-10-21T18:48:44.765Z,97772.63
2022-10-21T18:51:11.736Z,97777.47
2022-10-21T18:53:38.783Z,97776.91
2022-10-21T18:56:11.788Z,97766.84
2022-10-21T18:58:38.281Z,97770.41
2022-10-21T19:01:04.948Z,97764.81
2022-10-21T19:03:31.652Z,97761.06
2022-10-21T19:05:58.479Z,97767.84
2022-10-21T19:08:27.053Z,97763.53
2022-10-21T19:10:53.570Z,97765.34
2022-10-21T19:13:20.077Z,97764.13
2022-10-21T19:15:47.064Z,97766.47
2022-10-21T19:18:14.803Z,97760.06
2022-10-21T19:20:43.049Z,97761.63
2022-10-21T19:23:09.882Z,97768.66
2022-10-21T19:25:37.890Z,97774.66
2022-10-21T19:28:05.036Z,97766.91
2022-10-21T19:30:34.539Z,97768.44
2022-10-21T19:33:02.688Z,97774.34
2022-10-21T19:35:29.168Z,97782.53
2022-10-21T19:38:01.979Z,97778.97
2022-10-21T19:40:31.720Z,97784.09
2022-10-21T19:42:58.362Z,97798.91
2022-10-21T19:45:29.868Z,97803.78
2022-10-21T19:47:56.363Z,97802.78
2022-10-21T19:50:23.117Z,97808.47
2022-10-21T19:52:50.447Z,97815.50
2022-10-21T19:55:20.323Z,97811.94
2022-10-21T19:57:47.618Z,97805.03
2022-10-21T20:00:16.515Z,97808.91
2022-10-21T20:02:45.902Z,97803.34
2022-10-21T20:05:15.007Z,97801.09
2022-10-21T20:07:43.035Z,97806.34
2022-10-21T20:10:12.412Z,97797.69
2022-10-21T20:12:39.046Z,97805.56
2022-10-21T20:15:07.213Z,97807.47
2022-10-21T20:17:34.174Z,97805.22
2022-10-21T20:20:00.662Z,97809.00
2022-10-21T20:22:27.135Z,97800.19
2022-10-21T20:24:54.196Z,97799.88
2022-10-21T20:27:22.753Z,97801.16
2022-10-21T20:29:50.339Z,97802.81
2022-10-21T20:32:16.817Z,97806.53
2022-10-21T20:34:44.605Z,97816.19
2022-10-21T20:37:13.640Z,97813.25
2022-10-21T20:39:41.550Z,97824.44
2022-10-21T20:42:09.807Z,97827.47
2022-10-21T20:44:36.334Z,97833.03
2022-10-21T20:47:02.825Z,97830.31
2022-10-21T20:49:32.253Z,97836.34
2022-10-21T20:51:58.761Z,97841.28
2022-10-21T20:54:33.329Z,97850.13
2022-10-21T20:56:59.880Z,97854.66
2022-10-21T20:59:27.788Z,97891.47
2022-10-21T21:01:54.390Z,97895.44
2022-10-21T21:04:25.179Z,97898.81
2022-10-21T21:06:51.780Z,97899.63
2022-10-21T21:12:06.807Z,97913.84
2022-10-21T21:14:33.443Z,97934.63
2022-10-21T21:17:01.359Z,97926.13
2022-10-21T21:19:28.895Z,97923.53
2022-10-21T21:21:58.926Z,97927.47
2022-10-21T21:24:25.717Z,97920.84
2022-10-21T21:26:52.230Z,97924.63
2022-10-21T21:29:19.995Z,97913.97
2022-10-21T21:31:46.688Z,97921.91
2022-10-21T21:34:13.343Z,97919.50
2022-10-21T21:36:39.832Z,97912.84
2022-10-21T21:39:07.185Z,97908.31
2022-10-21T21:41:33.749Z,97912.66
2022-10-21T21:44:01.348Z,97912.91
2022-10-21T21:46:28.454Z,97908.91
2022-10-21T21:49:04.654Z,97914.03
2022-10-21T21:51:32.746Z,97906.28
2022-10-21T21:54:00.292Z,97904.97
2022-10-21T21:56:26.997Z,97907.38
2022-10-21T21:58:58.293Z,97903.78
2022-10-21T22:01:34.567Z,97909.06
2022-10-21T22:04:01.128Z,97893.91
2022-10-21T22:06:31.354Z,97894.28
2022-10-21T22:08:59.314Z,97895.81
2022-10-21T22:11:27.870Z,97895.31
2022-10-21T22:13:57.334Z,97896.31
2022-10-21T22:16:31.681Z,97893.19
2022-10-21T22:19:00.056Z,97883.59
2022-10-21T22:21:26.864Z,97884.69
2022-10-21T22:23:53.624Z,97892.72
2022-10-21T22:26:20.937Z,97897.66
2022-10-21T22:28:47.840Z,97896.63
2022-10-21T22:31:17.972Z,97898.88
2022-10-21T22:33:51.646Z,97901.66
2022-10-21T22:36:18.242Z,97911.41
2022-10-21T22:38:49.149Z,97921.91
2022-10-21T22:41:15.629Z,97938.41
2022-10-21T22:43:42.950Z,97943.69
2022-10-21T22:46:22.141Z,97947.34
2022-10-21T22:48:56.489Z,97944.50
2022-10-21T22:51:23.607Z,97931.81
2022-10-21T22:53:55.089Z,97926.31
2022-10-21T22:56:25.770Z,97919.88
2022-10-21T22:58:54.585Z,97917.41
2022-10-21T23:01:21.500Z,97926.88
2022-10-21T23:03:50.116Z,97930.50
2022-10-21T23:06:17.152Z,97927.72
2022-10-21T23:08:43.662Z,97937.16
2022-10-21T23:11:10.899Z,97941.84
2022-10-21T23:13:38.007Z,97930.28
2022-10-21T23:16:05.821Z,97920.97
2022-10-21T23:18:33.006Z,97938.06
2022-10-21T23:21:05.186Z,97936.56
2022-10-21T23:23:31.634Z,97940.53
2022-10-21T23:26:03.459Z,97939.94
2022-10-21T23:28:32.326Z,97954.09
2022-10-21T23:31:00.178Z,97960.00
2022-10-21T23:33:26.651Z,97968.59
2022-10-21T23:35:53.983Z,97968.13
2022-10-21T23:38:24.160Z,97960.16
2022-10-21T23:40:50.665Z,97957.22
2022-10-21T23:43:17.926Z,97951.16
2022-10-21T23:45:44.680Z,97962.25
2022-10-21T23:48:11.164Z,97960.75
2022-10-21T23:50:42.373Z,97961.91
2022-10-21T23:53:10.877Z,97968.13
2022-10-21T23:55:40.581Z,97973.50
2022-10-21T23:58:07.820Z,97973.06
